map of RAH home
RAH - Airport
Location
City:  Rafha, Saudi Arabia
Name:Rafha Airport
ICAO:OERF
IATA:RAH

Details
Type:Airport (Aerodrome, Airfield)
Use:Public/Civil, International (customs port of entry)
Latitude:2937'35"N (29.626389)
Longitude:4329'26"E (43.490556)
Elevation:1474 ft (449 m)
Variation:4.11E (WMM2015 magnetic declination)
0.06 annual change
Runways:1
Longest:9843 × 148 ft (3000 × 45 m), paved

Time
Time Zone:UTC+3
Local Time:

Weather
METAR:OERF 240300Z 14005KT 6000 NSC 18/14 Q1017

Related Locations
Nearby:
Farthest:GMR: 11969 mi / 19262 km
Mangareva [Totegegie], Gambier Islands, PF

Find:

   beyond  
but within

Other Information
Maps:
NOTAMs:
Links:
Sources:

  
  • flag of Saudi Arabia
  

Sectional Chart

Flight Planning
at skyvector.com

Satellite Image

Google Maps Satellite view

 

Copyright © 2004-2018 Karl L. Swartz. All rights reserved.
The Great Circle Mapper name and logo are trademarks of the Great Circle Mapper.
All other trademarks mentioned herein belong to their respective owners.
Please see credits for attibutions and further copyright information.

  Follow gcmap on Facebook Follow gcmap on Twitter Follow gcmap on Google+ GCmap on LinkedIn

hCard Microformat

Geo Microformat